Time;durP1;ratioP1;P1;durP2;ratioP2;P2;SDS_P1;SDS_P2;PMS_P1;PMS_P2;Temp;Humidity;BMP_temperature;BMP_pressure;BME280_temperature;BME280_humidity;BME280_pressure;Samples;Min_cycle;Max_cycle;Signal;HPM_P1;HPM_P2
2020/12/06 00:00:01;;;;;;;14.30;12.80;;;9.30;97.80;;;10.02;50.50;99657.47;4913172;28;99586;-60
2020/12/06 00:02:27;;;;;;;17.30;14.93;;;9.30;97.50;;;9.95;50.95;99645.50;4914127;28;98016;-59
2020/12/06 00:04:53;;;;;;;15.47;13.87;;;9.20;97.60;;;9.75;50.94;99634.16;4915997;28;98404;-60
2020/12/06 00:07:19;;;;;;;17.20;14.17;;;9.10;97.80;;;9.66;51.11;99621.44;4917662;28;100359;-61
2020/12/06 00:09:44;;;;;;;17.23;15.27;;;9.10;97.90;;;9.55;50.89;99610.59;4916639;28;99772;-59
2020/12/06 00:12:10;;;;;;;18.67;15.90;;;9.00;97.70;;;9.44;50.95;99607.59;4900114;28;99599;-59
2020/12/06 00:14:36;;;;;;;20.50;15.63;;;8.90;97.60;;;9.31;51.35;99612.59;4919373;28;101140;-61
2020/12/06 00:17:02;;;;;;;17.73;15.80;;;8.80;97.90;;;9.19;51.59;99623.69;4891116;28;98656;-61
2020/12/06 00:19:28;;;;;;;17.93;15.93;;;8.70;97.80;;;9.06;52.44;99627.78;4915844;28;98234;-61
2020/12/06 00:21:54;;;;;;;18.60;15.83;;;8.60;98.60;;;8.91;52.69;99635.44;4903973;28;97454;-61
2020/12/06 00:24:21;;;;;;;17.37;15.13;;;8.40;98.90;;;8.82;52.94;99635.00;4902075;28;107639;-59
2020/12/06 00:26:47;;;;;;;18.67;15.73;;;8.30;99.20;;;8.73;52.65;99635.44;4932868;28;99558;-60
2020/12/06 00:29:13;;;;;;;17.73;15.20;;;8.20;98.90;;;8.60;53.50;99630.69;4902536;28;101027;-62
2020/12/06 00:31:38;;;;;;;18.23;15.07;;;8.10;99.60;;;8.60;54.13;99633.31;4885713;28;98228;-58
2020/12/06 00:34:04;;;;;;;17.70;14.67;;;8.10;99.90;;;8.61;53.53;99624.53;4902833;28;99653;-60
2020/12/06 00:36:30;;;;;;;18.30;15.37;;;8.20;99.40;;;8.61;53.02;99627.16;4914892;28;98938;-58
2020/12/06 00:38:56;;;;;;;17.07;14.80;;;8.20;99.10;;;8.60;53.04;99629.84;4906291;28;102116;-61
2020/12/06 00:41:23;;;;;;;15.53;13.90;;;8.20;99.00;;;8.63;53.20;99627.94;4932834;28;107752;-61
2020/12/06 00:43:49;;;;;;;16.83;14.40;;;8.20;99.10;;;8.63;53.08;99616.56;4924740;28;97541;-61
2020/12/06 00:46:22;;;;;;;16.83;14.43;;;8.20;99.00;;;8.62;53.00;99607.81;4919740;28;97875;-59
2020/12/06 00:48:48;;;;;;;17.97;15.10;;;8.20;99.10;;;8.57;53.82;99608.97;4878973;28;100414;-60
2020/12/06 00:51:14;;;;;;;17.97;14.53;;;8.10;99.40;;;8.57;53.49;99604.56;4903192;28;99157;-60
2020/12/06 00:53:42;;;;;;;16.93;14.67;;;8.10;99.30;;;8.50;53.61;99623.28;4911966;28;97600;-61
2020/12/06 00:56:21;;;;;;;15.60;13.80;;;8.00;99.60;;;8.40;54.04;99649.13;4898511;28;99751;-61
2020/12/06 00:58:49;;;;;;;17.47;14.20;;;7.90;99.80;;;8.29;54.23;99640.78;4911286;28;102141;-61
2020/12/06 01:01:17;;;;;;;15.33;13.17;;;7.80;99.90;;;8.35;54.58;99630.91;4895473;28;99908;-61
2020/12/06 01:03:43;;;;;;;15.20;13.60;;;7.80;99.90;;;8.28;54.54;99634.69;4891911;28;99260;-60
2020/12/06 01:06:16;;;;;;;15.93;13.23;;;7.80;99.90;;;8.30;54.18;99637.25;4915451;28;100378;-60
2020/12/06 01:08:43;;;;;;;15.00;13.00;;;7.80;99.90;;;8.34;54.27;99615.19;4900634;28;103530;-58
2020/12/06 01:11:14;;;;;;;15.57;13.73;;;7.80;99.90;;;8.27;54.25;99622.47;4937093;28;97106;-58
2020/12/06 01:13:41;;;;;;;18.50;14.57;;;7.80;99.90;;;8.27;55.01;99630.34;4937502;28;96994;-58
2020/12/06 01:16:07;;;;;;;14.93;12.83;;;7.70;99.90;;;8.34;54.69;99612.56;4908154;28;99839;-61
2020/12/06 01:18:33;;;;;;;17.47;13.80;;;7.80;99.90;;;8.36;54.51;99600.22;4937532;28;99237;-58
2020/12/06 01:20:58;;;;;;;14.73;12.90;;;7.90;99.90;;;8.27;53.73;99617.22;4936400;28;98204;-58
2020/12/06 01:23:24;;;;;;;18.27;14.30;;;7.80;99.70;;;8.19;54.67;99628.97;4936454;28;97047;-57
2020/12/06 01:25:50;;;;;;;16.30;13.70;;;7.70;99.90;;;8.20;54.91;99621.00;4927516;28;119079;-61
2020/12/06 01:28:17;;;;;;;14.63;12.90;;;7.70;99.90;;;8.12;54.99;99625.75;4949945;28;112844;-58
2020/12/06 01:30:43;;;;;;;18.67;15.47;;;7.60;99.90;;;8.17;55.09;99620.28;4915217;28;103301;-61
2020/12/06 01:33:09;;;;;;;17.10;13.60;;;7.70;99.90;;;8.24;54.39;99606.81;4924414;28;97526;-57
2020/12/06 01:35:35;;;;;;;17.17;13.63;;;7.80;99.90;;;8.28;54.51;99612.81;4900211;28;100045;-59
2020/12/06 01:38:01;;;;;;;16.00;13.60;;;7.90;99.90;;;8.36;54.31;99608.09;4934586;28;98930;-59
2020/12/06 01:40:28;;;;;;;17.90;14.97;;;7.90;99.90;;;8.34;54.13;99607.31;4904703;28;97724;-59
2020/12/06 01:42:54;;;;;;;16.47;13.83;;;7.90;99.70;;;8.25;54.88;99607.69;4924885;28;96925;-59
2020/12/06 01:45:20;;;;;;;16.33;14.07;;;7.80;99.90;;;8.24;54.50;99592.81;4903598;28;104730;-59
2020/12/06 01:47:49;;;;;;;15.67;13.67;;;7.80;99.90;;;8.18;54.36;99596.59;4920000;28;100129;-59
2020/12/06 01:50:15;;;;;;;17.43;14.17;;;7.70;99.90;;;8.13;54.57;99597.72;4934217;28;97075;-59
2020/12/06 01:52:41;;;;;;;15.70;13.73;;;7.70;99.90;;;8.14;54.37;99599.41;4921407;28;102076;-59
2020/12/06 01:55:12;;;;;;;17.63;13.13;;;7.70;99.90;;;8.05;54.73;99604.13;4918481;28;98671;-59
2020/12/06 01:57:39;;;;;;;15.70;13.77;;;7.60;99.90;;;8.00;54.68;99613.97;4921937;28;98164;-59
2020/12/06 02:00:07;;;;;;;17.37;14.83;;;7.50;99.90;;;7.96;55.61;99622.91;4914958;28;96945;-59
2020/12/06 02:02:34;;;;;;;17.73;14.60;;;7.50;99.90;;;7.99;55.21;99629.78;4928156;28;97017;-59
2020/12/06 02:05:02;;;;;;;17.17;15.13;;;7.60;99.90;;;8.51;60.22;99651.25;4918284;28;98491;-56
2020/12/06 02:07:31;;;;;;;16.57;13.90;;;7.80;99.90;;;8.46;54.33;99669.00;4940314;28;99012;-58
2020/12/06 02:09:57;;;;;;;18.93;15.23;;;7.90;99.90;;;8.44;53.88;99666.44;4935604;28;96971;-58
2020/12/06 02:12:23;;;;;;;19.90;15.13;;;8.00;99.80;;;8.40;53.97;99664.03;4908070;28;97366;-59
2020/12/06 02:14:49;;;;;;;15.83;14.03;;;7.90;99.90;;;8.31;54.27;99665.22;4934794;28;100146;-59
2020/12/06 02:17:14;;;;;;;17.73;14.73;;;7.80;99.90;;;8.24;55.13;99664.63;4903886;28;105710;-59
2020/12/06 02:19:41;;;;;;;17.53;14.87;;;7.70;99.90;;;8.20;55.34;99677.94;4939166;28;101392;-59
2020/12/06 02:22:07;;;;;;;17.80;14.80;;;7.70;99.90;;;8.20;55.48;99668.28;4922454;28;97225;-59
2020/12/06 02:24:33;;;;;;;17.13;15.23;;;7.70;99.90;;;8.26;55.17;99656.69;4914563;28;99471;-58
2020/12/06 02:26:59;;;;;;;18.47;15.77;;;7.70;99.90;;;8.24;54.71;99656.72;4940396;28;98937;-59
2020/12/06 02:29:25;;;;;;;17.70;14.77;;;7.70;99.90;;;8.34;55.13;99649.34;4921068;28;100692;-59
2020/12/06 02:31:51;;;;;;;18.20;16.23;;;7.80;99.90;;;8.54;57.65;99646.75;4924795;28;96711;-59
2020/12/06 02:34:16;;;;;;;18.30;15.57;;;7.90;99.90;;;8.58;54.95;99648.31;4926677;28;100882;-58
2020/12/06 02:36:42;;;;;;;19.00;16.50;;;8.00;99.90;;;8.58;54.13;99637.81;4930914;28;104704;-59
2020/12/06 02:39:11;;;;;;;17.90;15.27;;;8.10;99.90;;;8.61;54.56;99621.88;4929872;28;97216;-58
2020/12/06 02:41:39;;;;;;;18.27;15.93;;;8.10;99.90;;;8.56;54.04;99617.78;4914403;28;96996;-59
2020/12/06 02:44:07;;;;;;;19.13;15.67;;;8.00;99.90;;;8.55;54.00;99624.81;4928159;28;99053;-59
2020/12/06 02:46:33;;;;;;;17.73;15.47;;;8.10;99.90;;;8.55;54.67;99624.81;4912030;28;99001;-59
2020/12/06 02:48:59;;;;;;;17.90;15.53;;;8.10;99.90;;;8.53;54.28;99612.63;4906699;28;96795;-59
2020/12/06 02:51:26;;;;;;;17.80;15.27;;;8.00;99.90;;;8.53;54.57;99618.72;4920375;28;97332;-59
2020/12/06 02:53:52;;;;;;;17.80;15.47;;;8.00;99.90;;;8.46;55.09;99625.19;4924434;28;98045;-59
2020/12/06 02:56:18;;;;;;;19.13;16.07;;;7.90;99.90;;;8.46;55.41;99619.94;4910907;28;97467;-59
2020/12/06 02:58:44;;;;;;;17.80;15.07;;;7.90;99.90;;;8.51;54.69;99628.47;4935650;28;96912;-59
2020/12/06 03:01:11;;;;;;;18.17;15.67;;;8.00;99.90;;;8.49;54.29;99638.19;4907934;28;96927;-56
2020/12/06 03:03:38;;;;;;;19.97;15.80;;;8.00;99.90;;;8.45;54.94;99652.41;4938079;28;100276;-59
2020/12/06 03:06:04;;;;;;;18.40;15.80;;;7.90;99.90;;;8.42;54.33;99651.69;4906720;28;116012;-59
2020/12/06 03:08:30;;;;;;;18.63;15.60;;;7.90;99.90;;;8.41;55.59;99650.81;4922520;28;96774;-59
2020/12/06 03:10:56;;;;;;;19.83;15.87;;;7.80;99.90;;;8.34;55.06;99654.63;4906322;28;97344;-60
2020/12/06 03:13:22;;;;;;;19.47;16.60;;;7.80;99.90;;;8.35;55.34;99661.56;4933001;28;97709;-59
2020/12/06 03:15:48;;;;;;;20.37;17.00;;;7.80;99.90;;;8.34;55.13;99659.88;4926398;28;97067;-58
2020/12/06 03:18:14;;;;;;;19.47;16.23;;;7.80;99.90;;;8.33;55.60;99660.75;4925402;28;97212;-59
2020/12/06 03:20:39;;;;;;;19.17;15.83;;;7.80;99.90;;;8.35;55.45;99651.06;4907394;28;106504;-58
2020/12/06 03:23:05;;;;;;;19.37;15.47;;;7.80;99.90;;;8.35;55.21;99646.66;4911583;28;118605;-59
2020/12/06 03:25:31;;;;;;;17.50;15.37;;;7.90;99.90;;;8.33;55.08;99645.00;4931966;28;102735;-59
2020/12/06 03:27:56;;;;;;;18.27;15.27;;;7.90;99.90;;;8.34;55.92;99633.59;4944891;28;99936;-59
2020/12/06 03:30:22;;;;;;;18.10;15.90;;;7.80;99.90;;;8.31;55.31;99638.94;4913294;28;109402;-59
2020/12/06 03:32:48;;;;;;;23.03;16.53;;;7.80;99.90;;;8.28;55.41;99646.97;4918863;28;105015;-58
2020/12/06 03:35:14;;;;;;;18.17;16.20;;;7.80;99.90;;;8.26;55.81;99648.81;4929074;28;120006;-59
2020/12/06 03:37:39;;;;;;;17.60;15.70;;;7.80;99.90;;;8.25;55.82;99653.22;4933679;28;97327;-58
2020/12/06 03:40:05;;;;;;;18.10;14.97;;;7.80;99.90;;;8.25;55.78;99655.00;4935614;28;102726;-59
2020/12/06 03:42:31;;;;;;;18.03;15.60;;;7.80;99.90;;;8.24;55.37;99658.50;4919612;28;97095;-59
2020/12/06 03:44:57;;;;;;;17.80;15.57;;;7.80;99.90;;;8.22;55.79;99669.06;4935376;28;104758;-59
2020/12/06 03:47:22;;;;;;;18.87;15.93;;;7.70;99.90;;;8.23;56.74;99665.53;4920281;28;96773;-60
2020/12/06 03:49:49;;;;;;;17.60;15.73;;;7.70;99.90;;;8.30;55.90;99653.00;4935231;28;101984;-59
2020/12/06 03:52:15;;;;;;;19.67;16.83;;;7.90;99.90;;;8.32;55.89;99644.13;4925171;28;98539;-59
2020/12/06 03:54:41;;;;;;;20.73;16.50;;;7.90;99.90;;;8.35;55.69;99645.81;4932496;28;97912;-59
2020/12/06 03:57:07;;;;;;;18.17;15.17;;;7.90;99.90;;;8.39;55.42;99647.41;4927534;28;102158;-58
2020/12/06 03:59:33;;;;;;;17.73;15.77;;;8.00;99.90;;;8.37;55.20;99641.34;4932419;28;96730;-58
2020/12/06 04:01:58;;;;;;;20.40;16.33;;;8.00;99.90;;;8.36;55.77;99637.00;4924573;28;100442;-59
2020/12/06 04:04:24;;;;;;;18.13;16.00;;;7.90;99.90;;;8.34;55.64;99638.84;4935297;28;98531;-59
2020/12/06 04:06:50;;;;;;;19.37;16.70;;;7.90;99.90;;;8.33;55.53;99631.84;4911887;28;96881;-58
2020/12/06 04:09:16;;;;;;;20.57;17.10;;;7.90;99.90;;;8.29;55.98;99617.16;4935979;28;100904;-59
2020/12/06 04:11:41;;;;;;;19.27;16.13;;;7.90;99.90;;;8.26;55.94;99605.00;4918560;28;101115;-59
2020/12/06 04:14:07;;;;;;;18.63;15.50;;;7.90;99.90;;;8.23;56.57;99609.50;4925886;28;99696;-59
2020/12/06 04:16:33;;;;;;;20.40;16.30;;;7.80;99.90;;;8.28;56.51;99597.91;4939162;28;97232;-59
2020/12/06 04:18:59;;;;;;;17.90;15.10;;;7.80;99.90;;;8.30;56.78;99605.72;4924584;28;97418;-59
2020/12/06 04:21:25;;;;;;;17.13;15.13;;;7.80;99.90;;;8.41;56.42;99593.00;4935197;28;110092;-58
2020/12/06 04:23:50;;;;;;;18.30;15.63;;;7.90;99.90;;;8.42;55.43;99586.84;4903025;28;103695;-59
2020/12/06 04:26:16;;;;;;;17.10;15.23;;;8.00;99.90;;;8.38;55.93;99587.88;4922995;28;96697;-59
2020/12/06 04:28:42;;;;;;;19.17;16.27;;;7.90;99.90;;;8.39;56.04;99589.59;4911767;28;96808;-59
2020/12/06 04:31:08;;;;;;;17.70;15.20;;;7.90;99.90;;;8.37;56.21;99591.41;4937056;28;111323;-59
2020/12/06 04:33:34;;;;;;;17.70;15.10;;;7.90;99.90;;;8.32;56.01;99588.13;4929645;28;103230;-59
2020/12/06 04:36:00;;;;;;;18.40;15.13;;;7.80;99.90;;;8.32;56.63;99585.47;4920233;28;96872;-59
2020/12/06 04:38:26;;;;;;;17.33;14.30;;;7.80;99.90;;;8.38;56.09;99577.34;4925518;28;97062;-59
2020/12/06 04:40:51;;;;;;;17.07;14.43;;;7.90;99.90;;;8.39;55.76;99568.56;4949437;28;98798;-59
2020/12/06 04:43:19;;;;;;;17.30;14.07;;;7.90;99.90;;;8.34;55.78;99581.91;4937600;28;98638;-59
2020/12/06 04:45:47;;;;;;;18.27;15.00;;;7.80;99.90;;;8.31;56.41;99596.91;4908509;28;108677;-58
2020/12/06 04:48:50;;;;;;;16.87;14.03;;;7.80;99.90;;;8.31;56.46;99607.41;4918342;28;97855;-59
2020/12/06 04:51:18;;;;;;;19.27;12.97;;;7.80;99.90;;;8.30;56.32;99610.97;4941420;28;98426;-58
2020/12/06 04:53:55;;;;;;;15.83;14.07;;;7.80;99.90;;;8.30;55.96;99610.97;4921134;28;101432;-59
2020/12/06 04:56:23;;;;;;;15.63;13.20;;;7.80;99.90;;;8.33;56.90;99614.31;4921685;28;97153;-58
2020/12/06 04:58:52;;;;;;;15.03;12.67;;;7.80;99.90;;;8.44;56.32;99603.38;4936492;28;97848;-59
2020/12/06 05:01:19;;;;;;;15.43;13.17;;;8.00;99.90;;;8.53;56.56;99592.44;4924170;28;104912;-58
2020/12/06 05:03:50;;;;;;;14.43;12.60;;;8.00;99.90;;;8.59;55.86;99576.44;4916477;28;103006;-56
2020/12/06 05:06:19;;;;;;;14.47;12.30;;;8.10;99.90;;;8.54;55.39;99581.03;4917344;28;97234;-56
2020/12/06 05:08:46;;;;;;;15.77;12.73;;;8.10;99.90;;;8.46;56.15;99596.28;4930884;28;98270;-58
2020/12/06 05:11:12;;;;;;;13.87;12.47;;;8.00;99.90;;;8.46;56.89;99592.81;4907755;28;104105;-58
2020/12/06 05:13:38;;;;;;;13.27;11.87;;;8.00;99.90;;;8.45;56.44;99589.31;4933416;28;97095;-59
2020/12/06 05:16:09;;;;;;;14.30;12.37;;;8.00;99.90;;;8.46;56.32;99580.50;4922621;28;103233;-58
2020/12/06 05:18:36;;;;;;;13.57;11.70;;;8.00;99.90;;;8.45;56.37;99581.44;4915094;28;97612;-58
2020/12/06 05:21:01;;;;;;;14.40;12.33;;;8.00;99.90;;;8.46;56.70;99588.41;4908432;28;106215;-59
2020/12/06 05:23:28;;;;;;;13.60;11.97;;;8.00;99.90;;;8.44;56.81;99587.63;4935223;28;104716;-59
2020/12/06 05:25:54;;;;;;;13.10;11.70;;;8.00;99.90;;;8.42;56.56;99578.09;4906377;28;104533;-58
2020/12/06 05:28:24;;;;;;;14.60;12.43;;;8.00;99.90;;;8.43;56.85;99570.16;4939786;28;97568;-59
2020/12/06 05:30:53;;;;;;;13.50;11.83;;;8.00;99.90;;;8.47;56.75;99561.19;4935995;28;97471;-57
2020/12/06 05:33:36;;;;;;;13.37;11.50;;;8.10;99.90;;;8.49;56.63;99571.63;4947258;28;97353;-57
2020/12/06 05:36:02;;;;;;;13.10;11.70;;;8.10;99.90;;;8.49;56.22;99563.75;4933641;28;97510;-58
2020/12/06 05:38:27;;;;;;;12.43;11.13;;;8.10;99.90;;;8.53;55.82;99576.69;4905780;28;98035;-57
2020/12/06 05:40:56;;;;;;;14.30;12.00;;;8.20;99.90;;;8.55;55.75;99585.38;4917695;28;101742;-58
2020/12/06 05:43:28;;;;;;;14.00;12.13;;;8.20;99.90;;;8.62;55.24;99586.78;4930200;28;100539;-59
2020/12/06 05:46:24;;;;;;;15.00;12.33;;;8.30;99.90;;;8.71;55.06;99597.84;4927970;28;97361;-57
2020/12/06 05:48:49;;;;;;;12.57;10.63;;;8.30;99.90;;;8.67;55.77;99607.63;4905005;28;108094;-57
2020/12/06 05:51:15;;;;;;;20.67;17.83;;;8.30;99.90;;;8.64;55.45;99600.72;4942883;28;98989;-58
2020/12/06 05:53:41;;;;;;;18.00;14.53;;;8.30;99.90;;;8.58;55.48;99595.75;4887836;28;117329;-56
2020/12/06 05:56:19;;;;;;;15.03;13.40;;;8.20;99.90;;;8.56;56.25;99592.34;4931187;28;97065;-56
2020/12/06 05:58:50;;;;;;;13.90;12.40;;;8.20;99.90;;;8.58;56.34;99601.00;4906711;28;101468;-56
2020/12/06 06:01:18;;;;;;;16.03;13.07;;;8.20;99.90;;;8.60;56.53;99599.16;4930892;28;97113;-59
2020/12/06 06:03:51;;;;;;;15.03;12.47;;;8.20;99.90;;;8.65;56.26;99581.41;4919664;28;100778;-56
2020/12/06 06:06:38;;;;;;;15.90;13.50;;;8.20;99.90;;;8.67;55.77;99577.84;4917394;28;99032;-56
2020/12/06 06:09:07;;;;;;;15.03;12.23;;;8.30;99.90;;;8.57;55.61;99583.53;4921169;28;97062;-58
2020/12/06 06:11:38;;;;;;;14.80;13.07;;;8.20;99.90;;;8.53;56.21;99595.06;4918445;28;103704;-55
2020/12/06 06:14:09;;;;;;;16.93;13.50;;;8.10;99.90;;;8.48;56.91;99604.94;4909404;28;97365;-59
2020/12/06 06:16:35;;;;;;;16.50;13.23;;;8.10;99.90;;;8.50;56.95;99597.84;4930463;28;97068;-59
2020/12/06 06:19:06;;;;;;;13.17;11.33;;;8.10;99.90;;;8.53;56.53;99588.97;4913443;28;96903;-58
2020/12/06 06:21:39;;;;;;;16.13;11.77;;;8.10;99.90;;;8.53;56.76;99589.81;4929965;28;97347;-58
2020/12/06 06:24:14;;;;;;;12.60;11.27;;;8.10;99.90;;;8.52;57.12;99588.13;4901445;28;97757;-57
2020/12/06 06:26:47;;;;;;;13.27;11.60;;;8.10;99.90;;;8.51;56.14;99582.94;4917379;28;97399;-59
2020/12/06 06:29:18;;;;;;;13.07;11.33;;;8.10;99.90;;;8.49;56.55;99585.63;5007927;22;99759;-58
2020/12/06 06:31:49;;;;;;;12.50;11.20;;;8.10;99.90;;;8.51;56.58;99585.56;4948740;28;97592;-60
2020/12/06 06:34:16;;;;;;;12.93;11.37;;;8.20;99.90;;;8.52;56.45;99585.50;4957800;28;98966;-57
2020/12/06 06:36:46;;;;;;;13.40;11.53;;;8.20;99.90;;;8.54;56.53;99583.66;4948284;28;100364;-59
2020/12/06 06:39:22;;;;;;;11.83;10.47;;;8.20;99.90;;;8.56;56.25;99571.31;4953727;28;97191;-61
2020/12/06 06:42:10;;;;;;;15.10;10.90;;;8.20;99.90;;;8.55;56.17;99563.50;4968806;28;100342;-58
2020/12/06 06:44:41;;;;;;;14.33;12.60;;;8.20;99.90;;;8.53;56.40;99568.78;4927040;28;99497;-58
2020/12/06 06:47:10;;;;;;;14.37;12.23;;;8.20;99.90;;;8.55;56.69;99560.88;4955703;28;99239;-57
2020/12/06 06:49:55;;;;;;;14.27;11.60;;;8.20;99.90;;;8.55;56.15;99556.47;4951707;28;96994;-56
2020/12/06 06:52:24;;;;;;;12.93;11.00;;;8.20;99.90;;;8.60;57.40;99545.72;4965094;28;102918;-59
2020/12/06 06:54:54;;;;;;;14.17;11.80;;;8.20;99.90;;;8.74;58.22;99537.22;4954691;28;96831;-62
2020/12/06 06:57:23;;;;;;;11.30;9.47;;;8.30;99.90;;;9.00;56.90;99528.97;4913867;28;97277;-58
2020/12/06 06:59:55;;;;;;;15.30;9.80;;;8.40;99.90;;;8.93;55.05;99540.69;4954572;28;98092;-57
2020/12/06 07:02:31;;;;;;;10.80;9.70;;;8.40;99.90;;;8.86;55.20;99541.91;4922044;28;105011;-60
2020/12/06 07:04:58;;;;;;;11.13;9.93;;;8.40;99.90;;;8.73;55.54;99546.03;4957526;28;97080;-59
2020/12/06 07:07:45;;;;;;;11.80;10.20;;;8.30;99.90;;;8.70;55.78;99561.97;4937952;28;103753;-59
2020/12/06 07:10:17;;;;;;;15.00;12.47;;;8.20;99.90;;;8.73;55.59;99561.81;4953840;28;96986;-59
2020/12/06 07:12:45;;;;;;;16.07;13.40;;;8.30;99.90;;;8.73;55.00;99561.81;4929086;28;99890;-58
2020/12/06 07:15:12;;;;;;;15.97;12.97;;;8.40;99.90;;;8.73;55.06;99553.94;4965624;28;97308;-60
2020/12/06 07:17:39;;;;;;;15.10;13.13;;;8.30;99.90;;;8.70;54.97;99551.44;4920640;28;96868;-58
2020/12/06 07:20:08;;;;;;;14.30;12.47;;;8.40;99.90;;;8.71;55.05;99537.38;4959723;28;96910;-60
2020/12/06 07:22:36;;;;;;;14.00;12.27;;;8.40;99.90;;;8.73;55.37;99520.59;4916765;28;97679;-59
2020/12/06 07:25:04;;;;;;;15.50;11.63;;;8.40;99.90;;;8.70;55.40;99519.91;4939314;28;99293;-58
2020/12/06 07:27:32;;;;;;;12.50;11.20;;;8.40;99.90;;;8.65;55.43;99528.81;4921957;28;97081;-60
2020/12/06 07:30:03;;;;;;;13.53;11.77;;;8.30;99.90;;;8.60;55.64;99525.56;4955805;28;98612;-58
2020/12/06 07:32:29;;;;;;;13.00;11.13;;;8.20;99.90;;;8.55;55.54;99551.22;4936776;28;102967;-58
2020/12/06 07:34:54;;;;;;;13.80;11.97;;;8.20;99.90;;;8.50;55.98;99545.28;4968257;28;100736;-55
2020/12/06 07:37:21;;;;;;;13.20;10.90;;;8.10;99.90;;;8.42;55.99;99560.56;4956599;28;99654;-59
2020/12/06 07:39:49;;;;;;;12.47;11.17;;;8.00;99.90;;;8.40;56.54;99570.28;4946421;28;97566;-58
2020/12/06 07:42:27;;;;;;;13.07;10.80;;;7.90;99.90;;;8.44;57.01;99565.75;4929186;28;97359;-59
2020/12/06 07:44:59;;;;;;;12.57;10.93;;;7.90;99.90;;;8.44;56.69;99560.47;4944247;28;97461;-58
2020/12/06 07:47:26;;;;;;;12.03;9.93;;;8.00;99.90;;;8.45;57.08;99563.03;4959356;28;96898;-59
2020/12/06 07:49:54;;;;;;;13.90;11.73;;;8.00;99.90;;;8.41;56.87;99572.00;4949487;28;97120;-58
2020/12/06 07:52:26;;;;;;;12.83;10.93;;;8.00;99.90;;;8.39;56.96;99573.84;4960438;28;96832;-58
2020/12/06 07:54:56;;;;;;;12.73;10.47;;;8.00;99.90;;;8.43;57.01;99582.44;4927803;28;100078;-57
2020/12/06 07:57:40;;;;;;;14.57;11.53;;;8.00;99.90;;;8.41;57.46;99590.38;4961576;28;102867;-59
2020/12/06 08:00:21;;;;;;;13.63;11.33;;;8.00;99.90;;;8.45;57.66;99584.06;4946213;28;97087;-59
2020/12/06 08:02:54;;;;;;;14.23;11.83;;;8.00;99.90;;;8.49;56.98;99576.88;4956515;28;98523;-58
2020/12/06 08:05:22;;;;;;;13.60;11.10;;;8.10;99.90;;;8.52;56.92;99569.72;4941435;28;102639;-59
2020/12/06 08:07:56;;;;;;;13.73;10.87;;;8.20;99.90;;;8.55;56.94;99580.13;4959313;28;103295;-59
2020/12/06 08:10:24;;;;;;;13.03;11.07;;;8.20;99.90;;;8.57;56.89;99559.88;4944777;28;97252;-59
2020/12/06 08:12:54;;;;;;;12.77;11.17;;;8.20;99.90;;;8.65;56.96;99560.38;4957380;28;98836;-59
2020/12/06 08:15:24;;;;;;;12.63;10.37;;;8.30;99.90;;;8.67;55.87;99548.94;4939865;28;100779;-60
2020/12/06 08:17:52;;;;;;;13.37;10.50;;;8.40;99.90;;;8.58;56.61;99569.47;4945851;28;97128;-60
2020/12/06 08:20:20;;;;;;;12.67;10.53;;;8.20;99.90;;;8.57;56.20;99573.00;4944214;28;97256;-57
2020/12/06 08:22:56;;;;;;;11.53;10.27;;;8.20;99.90;;;8.59;56.60;99570.31;4962361;28;98891;-60
2020/12/06 08:25:28;;;;;;;14.70;12.93;;;8.20;99.90;;;8.56;57.01;99567.81;4942551;28;98604;-60
2020/12/06 08:27:56;;;;;;;15.37;13.23;;;8.20;99.90;;;8.60;56.27;99561.50;4952504;28;96924;-59
2020/12/06 08:30:24;;;;;;;32.40;23.73;;;8.30;99.90;;;8.65;56.42;99565.63;4939970;28;97365;-59
2020/12/06 08:32:59;;;;;;;17.87;12.80;;;8.40;99.90;;;8.70;56.08;99556.69;4958348;28;97912;-59
2020/12/06 08:35:47;;;;;;;15.03;12.13;;;8.40;99.90;;;8.77;55.84;99552.84;4920576;28;99382;-63
2020/12/06 08:38:37;;;;;;;14.63;11.90;;;8.50;99.90;;;8.78;55.83;99539.63;4962108;28;98147;-58
2020/12/06 08:41:08;;;;;;;35.27;27.10;;;8.50;99.90;;;8.80;55.33;99543.03;4940095;28;96843;-59
2020/12/06 08:43:49;;;;;;;19.27;15.43;;;8.50;99.90;;;8.74;56.89;99548.59;4958379;28;99643;-61
2020/12/06 08:46:24;;;;;;;13.10;11.70;;;8.40;99.90;;;8.74;56.69;99545.13;4950106;28;97154;-59
2020/12/06 08:48:54;;;;;;;26.33;19.60;;;8.40;99.90;;;8.76;56.07;99545.88;4954205;28;97261;-59
2020/12/06 08:51:38;;;;;;;25.93;19.87;;;8.50;99.90;;;8.83;55.94;99539.44;4931583;28;97430;-60
2020/12/06 08:54:06;;;;;;;24.77;18.53;;;8.50;99.90;;;8.82;56.04;99545.59;4967328;28;100447;-59
2020/12/06 08:56:41;;;;;;;49.70;32.70;;;8.50;99.90;;;8.86;55.54;99541.91;4939648;28;97121;-59
2020/12/06 08:59:15;;;;;;;34.50;24.67;;;8.60;99.90;;;8.89;55.22;99545.25;4952965;28;96975;-60
2020/12/06 09:01:49;;;;;;;20.13;15.73;;;8.60;99.90;;;8.89;54.84;99552.28;4933979;28;96939;-60
2020/12/06 09:04:16;;;;;;;32.67;22.57;;;8.70;99.90;;;8.98;56.80;99551.88;4936017;28;100329;-58
2020/12/06 09:06:42;;;;;;;21.83;16.70;;;8.70;99.90;;;8.98;55.41;99559.78;4941613;28;99387;-58
2020/12/06 09:09:09;;;;;;;17.50;14.53;;;8.70;99.90;;;8.94;55.57;99555.56;4944178;28;97085;-58
2020/12/06 09:11:35;;;;;;;24.27;19.37;;;8.70;99.90;;;9.01;55.38;99546.47;4954998;28;98383;-59
2020/12/06 09:14:01;;;;;;;18.37;14.07;;;8.80;99.90;;;8.98;55.49;99536.09;4939684;28;100007;-59
2020/12/06 09:16:27;;;;;;;15.77;13.57;;;8.80;99.90;;;8.95;55.62;99530.97;4946842;28;99994;-60
2020/12/06 09:18:53;;;;;;;13.57;12.10;;;8.70;99.90;;;8.95;55.83;99536.22;4936960;28;102405;-58
2020/12/06 09:21:20;;;;;;;15.63;13.63;;;8.70;99.90;;;8.84;56.03;99533.25;4940310;28;96633;-60
2020/12/06 09:23:47;;;;;;;16.53;13.07;;;8.60;99.90;;;8.87;56.36;99527.84;4942340;28;98367;-60
2020/12/06 09:26:13;;;;;;;16.77;14.57;;;8.60;99.90;;;8.86;55.75;99528.78;4954973;28;100162;-59
2020/12/06 09:28:38;;;;;;;14.20;12.70;;;8.70;99.90;;;8.82;56.46;99530.66;4922077;28;99542;-58
2020/12/06 09:31:05;;;;;;;17.37;13.37;;;8.60;99.90;;;8.86;56.51;99537.50;4958033;28;97526;-60
2020/12/06 09:33:31;;;;;;;15.77;13.47;;;8.70;99.90;;;8.87;56.22;99543.63;4937070;28;97523;-60
2020/12/06 09:35:57;;;;;;;19.07;14.03;;;8.70;99.90;;;8.99;57.27;99542.22;4940077;28;99901;-59
2020/12/06 09:38:25;;;;;;;14.37;12.50;;;8.70;99.90;;;9.07;56.20;99529.53;4924218;28;97012;-59
2020/12/06 09:40:50;;;;;;;14.03;12.53;;;8.80;99.90;;;9.10;56.70;99537.28;4950401;28;96952;-60
2020/12/06 09:43:16;;;;;;;13.53;11.43;;;8.80;99.90;;;9.16;55.76;99540.50;4957518;28;99464;-60
2020/12/06 09:45:42;;;;;;;13.80;12.47;;;8.90;99.90;;;9.19;56.85;99550.84;4935153;28;104641;-60
2020/12/06 09:48:09;;;;;;;15.70;12.63;;;9.00;99.90;;;9.21;57.01;99543.75;4955447;28;97115;-60
2020/12/06 09:50:36;;;;;;;15.13;13.07;;;9.00;99.90;;;9.19;56.87;99550.84;4954767;28;97535;-58
2020/12/06 09:53:02;;;;;;;14.70;12.80;;;8.90;99.90;;;9.24;57.19;99559.38;4952057;28;104449;-59
2020/12/06 09:55:28;;;;;;;13.90;12.40;;;9.00;99.90;;;9.29;56.35;99550.44;4944996;28;98130;-60
2020/12/06 09:57:54;;;;;;;13.43;12.03;;;9.10;99.90;;;9.32;56.42;99550.28;4952413;28;96976;-60
2020/12/06 10:00:20;;;;;;;30.30;23.07;;;9.10;99.90;;;9.39;56.70;99546.41;4951573;28;102618;-59
2020/12/06 10:02:46;;;;;;;15.10;13.50;;;9.10;99.90;;;9.45;56.48;99540.88;4953647;28;100289;-58
2020/12/06 10:05:12;;;;;;;13.23;11.83;;;9.20;99.90;;;9.41;56.98;99550.69;4931001;28;98592;-60
2020/12/06 10:07:38;;;;;;;16.30;12.63;;;9.20;99.90;;;9.44;56.76;99561.06;4953911;28;97752;-60
2020/12/06 10:10:06;;;;;;;18.80;14.43;;;9.20;99.90;;;9.46;55.84;99559.22;4902032;28;99299;-59
2020/12/06 10:12:32;;;;;;;16.10;12.70;;;9.20;99.90;;;9.43;56.10;99551.47;4939496;28;100445;-59
2020/12/06 10:14:57;;;;;;;32.10;20.80;;;9.20;99.90;;;9.48;56.61;99543.34;4922357;28;99359;-60
2020/12/06 10:17:24;;;;;;;26.67;17.57;;;9.20;99.90;;;9.46;56.78;99542.56;4917003;28;98701;-60
2020/12/06 10:19:50;;;;;;;16.57;13.00;;;9.20;99.90;;;9.51;57.66;99535.28;4955271;28;96964;-59
2020/12/06 10:22:16;;;;;;;13.67;12.20;;;9.30;99.90;;;9.56;57.12;99528.03;4931512;28;99957;-60